createdAt,value
2019-02-05T00:00:57.719Z,8.13
2019-02-05T00:03:27.112Z,7.70
2019-02-05T00:05:56.427Z,7.37
2019-02-05T00:08:25.870Z,7.30
2019-02-05T00:10:55.839Z,6.72
2019-02-05T00:13:25.314Z,7.58
2019-02-05T00:15:54.702Z,7.65
2019-02-05T00:18:24.147Z,8.10
2019-02-05T00:20:53.523Z,6.95
2019-02-05T00:23:23.282Z,6.30
2019-02-05T00:25:52.948Z,6.47
2019-02-05T00:28:22.408Z,7.28
2019-02-05T00:30:51.872Z,6.72
2019-02-05T00:33:21.442Z,6.53
2019-02-05T00:35:50.763Z,6.92
2019-02-05T00:38:20.097Z,6.17
2019-02-05T00:40:49.714Z,7.03
2019-02-05T00:43:19.122Z,6.90
2019-02-05T00:45:48.587Z,7.22
2019-02-05T00:48:18.422Z,6.75
2019-02-05T00:50:48.779Z,6.65
2019-02-05T00:53:18.339Z,7.53
2019-02-05T00:55:47.732Z,7.45
2019-02-05T00:58:17.145Z,7.25
2019-02-05T01:00:46.676Z,6.87
2019-02-05T01:03:16.115Z,6.85
2019-02-05T01:05:45.485Z,6.97
2019-02-05T01:08:14.823Z,7.70
2019-02-05T01:10:44.224Z,8.00
2019-02-05T01:13:13.916Z,7.17
2019-02-05T01:15:43.236Z,6.62
2019-02-05T01:18:13.077Z,7.45
2019-02-05T01:20:42.534Z,6.95
2019-02-05T01:23:11.847Z,6.70
2019-02-05T01:25:41.223Z,7.37
2019-02-05T01:28:10.917Z,7.28
2019-02-05T01:30:40.237Z,7.12
2019-02-05T01:33:09.588Z,7.25
2019-02-05T01:35:38.914Z,7.80
2019-02-05T01:38:08.632Z,7.55
2019-02-05T01:40:37.993Z,6.67
2019-02-05T01:43:07.331Z,6.50
2019-02-05T01:45:36.722Z,6.22
2019-02-05T01:48:06.263Z,7.20
2019-02-05T01:50:35.570Z,7.20
2019-02-05T01:53:05.660Z,6.70
2019-02-05T01:55:35.073Z,7.45
2019-02-05T01:58:04.474Z,7.40
2019-02-05T02:00:35.005Z,7.40
2019-02-05T02:03:04.486Z,8.10
2019-02-05T02:05:33.879Z,7.58
2019-02-05T02:08:03.711Z,8.03
2019-02-05T02:10:33.063Z,7.72
2019-02-05T02:13:02.391Z,9.43
2019-02-05T02:15:32.240Z,7.20
2019-02-05T02:18:01.797Z,7.67
2019-02-05T02:20:31.110Z,7.78
2019-02-05T02:23:00.794Z,7.85
2019-02-05T02:25:30.237Z,7.10
2019-02-05T02:27:59.565Z,7.62
2019-02-05T02:30:37.189Z,7.40
2019-02-05T02:33:06.661Z,8.23
2019-02-05T02:35:36.671Z,7.62
2019-02-05T02:38:06.017Z,7.08
2019-02-05T02:40:35.777Z,7.53
2019-02-05T02:43:05.090Z,6.53
2019-02-05T02:45:34.893Z,7.25
2019-02-05T02:48:04.343Z,6.95
2019-02-05T02:50:34.156Z,7.08
2019-02-05T02:53:03.601Z,7.85
2019-02-05T02:55:32.999Z,7.10
2019-02-05T02:58:02.334Z,6.45
2019-02-05T03:00:31.695Z,6.67
2019-02-05T03:03:01.072Z,7.15
2019-02-05T03:05:30.942Z,6.25
2019-02-05T03:08:00.424Z,6.60
2019-02-05T03:10:30.807Z,6.25
2019-02-05T03:13:00.214Z,6.17
2019-02-05T03:15:29.661Z,6.35
2019-02-05T03:17:59.104Z,5.97
2019-02-05T03:20:28.893Z,5.70
2019-02-05T03:22:58.308Z,5.20
2019-02-05T03:25:28.111Z,5.45
2019-02-05T03:27:57.506Z,6.67
2019-02-05T03:30:27.230Z,5.47
2019-02-05T03:32:57.399Z,5.85
2019-02-05T03:35:26.904Z,6.10
2019-02-05T03:37:56.714Z,6.22
2019-02-05T03:40:29.654Z,6.17
2019-02-05T03:42:59.208Z,6.03
2019-02-05T03:45:29.548Z,6.92
2019-02-05T03:48:03.875Z,6.17
2019-02-05T03:50:39.089Z,6.03
2019-02-05T03:53:26.701Z,6.25
2019-02-05T03:56:05.388Z,6.47
2019-02-05T03:58:50.141Z,5.97
2019-02-05T04:01:35.050Z,6.37
2019-02-05T04:04:07.707Z,6.12
2019-02-05T04:06:46.358Z,6.62
2019-02-05T04:09:47.979Z,6.33
2019-02-05T04:12:35.321Z,6.35
2019-02-05T04:15:29.047Z,7.35
2019-02-05T04:18:13.797Z,6.35
2019-02-05T04:20:47.343Z,6.25
2019-02-05T04:23:44.623Z,6.40
2019-02-05T04:26:29.034Z,6.70
2019-02-05T04:29:13.944Z,7.28
2019-02-05T04:32:05.956Z,6.53
2019-02-05T04:34:54.956Z,7.12
2019-02-05T04:37:36.085Z,7.33
2019-02-05T04:40:35.792Z,7.95
2019-02-05T04:43:31.518Z,8.20
2019-02-05T04:46:09.532Z,7.00
2019-02-05T04:48:45.171Z,8.28
2019-02-05T04:51:36.410Z,8.50
2019-02-05T04:54:20.841Z,7.12
2019-02-05T04:56:59.452Z,6.90
2019-02-05T04:59:47.127Z,6.87
2019-02-05T05:02:34.381Z,6.58
2019-02-05T05:05:09.953Z,6.78
2019-02-05T05:07:51.414Z,6.97
2019-02-05T05:10:20.805Z,6.40
2019-02-05T05:12:50.132Z,6.85
2019-02-05T05:15:19.490Z,7.95
2019-02-05T05:17:48.929Z,7.12
2019-02-05T05:20:18.261Z,7.30
2019-02-05T05:22:48.082Z,7.70
2019-02-05T05:25:17.856Z,8.00
2019-02-05T05:27:47.387Z,8.35
2019-02-05T05:30:17.423Z,7.67
2019-02-05T05:32:46.810Z,7.50
2019-02-05T05:35:16.267Z,7.62
2019-02-05T05:37:45.669Z,7.40
2019-02-05T05:40:15.136Z,6.87
2019-02-05T05:42:44.911Z,7.90
2019-02-05T05:45:14.849Z,7.22
2019-02-05T05:47:44.222Z,7.35
2019-02-05T05:50:14.956Z,7.00
2019-02-05T05:52:44.775Z,7.55
2019-02-05T05:55:15.240Z,7.17
2019-02-05T05:57:44.659Z,6.78
2019-02-05T06:00:19.254Z,7.42
2019-02-05T06:05:18.983Z,6.67
2019-02-05T06:07:48.563Z,6.90
2019-02-05T06:10:18.602Z,7.55
2019-02-05T06:12:49.118Z,7.78
2019-02-05T06:15:18.485Z,7.42
2019-02-05T06:17:48.113Z,7.22
2019-02-05T06:20:19.571Z,7.67
2019-02-05T06:22:49.000Z,7.95
2019-02-05T06:25:18.732Z,8.28
2019-02-05T06:27:48.499Z,8.05
2019-02-05T06:30:18.338Z,7.80
2019-02-05T06:32:47.711Z,8.85
2019-02-05T06:35:17.137Z,8.30
2019-02-05T06:37:46.524Z,8.13
2019-02-05T06:40:20.541Z,7.50
2019-02-05T06:42:49.937Z,7.62
2019-02-05T06:45:19.319Z,8.03
2019-02-05T06:47:48.677Z,8.85
2019-02-05T06:50:18.216Z,10.43
2019-02-05T06:52:47.624Z,9.60
2019-02-05T06:55:17.141Z,8.70
2019-02-05T06:57:46.538Z,7.85
2019-02-05T07:00:23.833Z,8.73
2019-02-05T07:02:53.541Z,10.03
2019-02-05T07:05:23.266Z,8.48
2019-02-05T07:07:53.006Z,8.53
2019-02-05T07:10:24.323Z,9.03
2019-02-05T07:12:53.636Z,9.15
2019-02-05T07:15:23.087Z,9.28
2019-02-05T07:17:52.832Z,10.35
2019-02-05T07:20:22.159Z,10.28
2019-02-05T07:22:51.959Z,9.78
2019-02-05T07:25:22.678Z,11.65
2019-02-05T07:27:52.098Z,10.65
2019-02-05T07:30:24.043Z,10.15
2019-02-05T07:32:53.515Z,9.15
2019-02-05T07:35:22.971Z,9.03
2019-02-05T07:37:52.363Z,9.88
2019-02-05T07:40:23.043Z,10.70
2019-02-05T07:42:52.433Z,10.70
2019-02-05T07:45:23.235Z,10.78
2019-02-05T07:47:53.057Z,11.03
2019-02-05T07:50:25.273Z,11.12
2019-02-05T07:52:54.812Z,9.33
2019-02-05T07:55:24.615Z,10.80
2019-02-05T07:57:53.954Z,9.65
2019-02-05T08:00:30.499Z,11.18
2019-02-05T08:03:00.189Z,10.68
2019-02-05T08:05:34.010Z,11.43
2019-02-05T08:08:04.270Z,10.05
2019-02-05T08:10:33.862Z,12.30
2019-02-05T08:13:03.685Z,11.15
2019-02-05T08:15:36.335Z,11.43
2019-02-05T08:18:06.139Z,11.90
2019-02-05T08:20:35.681Z,10.90
2019-02-05T08:23:05.095Z,11.10
2019-02-05T08:25:34.557Z,17.45
2019-02-05T08:28:04.590Z,14.63
2019-02-05T08:30:37.323Z,15.48
2019-02-05T08:35:36.261Z,13.95
2019-02-05T08:38:05.699Z,11.53
2019-02-05T08:40:36.293Z,11.53
2019-02-05T08:43:06.337Z,11.00
2019-02-05T08:45:37.655Z,11.95
2019-02-05T08:48:09.426Z,10.75
2019-02-05T08:50:38.798Z,11.38
2019-02-05T08:53:08.209Z,12.25
2019-02-05T08:55:37.533Z,11.63
2019-02-05T08:58:12.501Z,10.63
2019-02-05T09:00:42.745Z,11.50
2019-02-05T09:03:12.611Z,11.57
2019-02-05T09:05:41.977Z,11.85
2019-02-05T09:08:11.848Z,12.05
2019-02-05T09:10:42.408Z,11.97
2019-02-05T09:13:12.674Z,12.65
2019-02-05T09:15:41.996Z,12.60
2019-02-05T09:18:11.452Z,13.28
2019-02-05T09:20:40.915Z,39.83
2019-02-05T09:23:10.231Z,17.62
2019-02-05T09:25:39.718Z,13.80
2019-02-05T09:28:09.596Z,13.03
2019-02-05T09:30:39.015Z,12.50
2019-02-05T09:33:14.260Z,13.28
2019-02-05T09:35:43.678Z,12.78
2019-02-05T09:38:13.452Z,12.47
2019-02-05T09:40:42.839Z,13.28
2019-02-05T09:43:12.174Z,13.72
2019-02-05T09:45:41.723Z,13.40
2019-02-05T09:48:11.491Z,13.38
2019-02-05T09:50:44.679Z,11.93
2019-02-05T09:53:11.969Z,13.00
2019-02-05T09:55:41.383Z,11.55
2019-02-05T09:58:10.696Z,12.23
2019-02-05T10:00:41.118Z,10.90
2019-02-05T10:03:10.515Z,12.70
2019-02-05T10:05:39.924Z,11.73
2019-02-05T10:08:10.476Z,12.53
2019-02-05T10:10:39.803Z,12.85
2019-02-05T10:13:09.284Z,12.55
2019-02-05T10:15:41.419Z,12.68
2019-02-05T10:18:12.810Z,10.60
2019-02-05T10:20:42.249Z,12.90
2019-02-05T10:23:11.647Z,11.40
2019-02-05T10:25:54.119Z,11.40
2019-02-05T10:28:23.833Z,11.30
2019-02-05T10:30:53.321Z,9.13
2019-02-05T10:33:22.944Z,11.97
2019-02-05T10:35:52.753Z,12.63
2019-02-05T10:38:22.470Z,10.50
2019-02-05T10:40:52.023Z,10.58
2019-02-05T10:43:21.343Z,11.22
2019-02-05T10:45:50.820Z,9.68
2019-02-05T10:48:20.285Z,11.50
2019-02-05T10:50:49.691Z,11.63
2019-02-05T10:53:19.498Z,12.33
2019-02-05T10:55:49.080Z,13.22
2019-02-05T10:58:18.473Z,12.35
2019-02-05T11:00:48.277Z,12.58
2019-02-05T11:03:17.721Z,13.60
2019-02-05T11:05:47.327Z,12.15
2019-02-05T11:08:16.799Z,13.43
2019-02-05T11:10:46.234Z,13.00
2019-02-05T11:13:18.816Z,13.10
2019-02-05T11:15:47.270Z,11.97
2019-02-05T11:18:16.642Z,11.48
2019-02-05T11:20:46.413Z,12.13
2019-02-05T11:23:15.946Z,13.13
2019-02-05T11:25:45.362Z,13.03
2019-02-05T11:28:14.737Z,13.10
2019-02-05T11:30:45.108Z,14.13
2019-02-05T11:33:15.639Z,13.43
2019-02-05T11:35:45.351Z,21.60
2019-02-05T11:38:14.811Z,12.70
2019-02-05T11:40:44.274Z,12.40
2019-02-05T11:43:13.668Z,12.35
2019-02-05T11:45:43.065Z,12.53
2019-02-05T11:48:15.060Z,12.30
2019-02-05T11:50:44.751Z,11.88
2019-02-05T11:53:14.083Z,13.05
2019-02-05T11:55:43.640Z,12.33
2019-02-05T11:58:13.035Z,9.73
2019-02-05T12:00:47.036Z,11.88
2019-02-05T12:03:16.780Z,9.98
2019-02-05T12:05:46.188Z,10.30
2019-02-05T12:08:18.488Z,11.25
2019-02-05T12:10:46.860Z,9.98
2019-02-05T12:13:16.334Z,9.50
2019-02-05T12:15:46.347Z,8.75
2019-02-05T12:18:15.840Z,8.80
2019-02-05T12:20:45.825Z,8.78
2019-02-05T12:23:15.180Z,8.15
2019-02-05T12:25:44.703Z,8.63
2019-02-05T12:28:14.386Z,9.40
2019-02-05T12:30:45.507Z,9.83
2019-02-05T12:33:15.075Z,10.32
2019-02-05T12:35:45.465Z,9.15
2019-02-05T12:38:15.279Z,8.98
2019-02-05T12:40:45.594Z,9.50
2019-02-05T12:43:15.088Z,9.80
2019-02-05T12:45:44.403Z,9.53
2019-02-05T12:48:13.792Z,9.88
2019-02-05T12:50:44.149Z,9.40
2019-02-05T12:53:14.666Z,10.80
2019-02-05T12:55:44.025Z,9.80
2019-02-05T12:58:13.884Z,10.05
2019-02-05T13:00:56.626Z,8.75
2019-02-05T13:03:17.174Z,7.87
2019-02-05T13:05:47.198Z,7.05
2019-02-05T13:08:16.574Z,8.08
2019-02-05T13:10:51.234Z,7.15
2019-02-05T13:13:20.559Z,6.47
2019-02-05T13:15:50.013Z,6.25
2019-02-05T13:18:20.552Z,6.22
2019-02-05T13:20:50.036Z,5.78
2019-02-05T13:23:19.439Z,6.15
2019-02-05T13:25:48.821Z,6.40
2019-02-05T13:28:18.241Z,6.72
2019-02-05T13:30:47.633Z,5.85
2019-02-05T13:33:18.228Z,5.50
2019-02-05T13:35:47.547Z,5.75
2019-02-05T13:38:17.167Z,5.62
2019-02-05T13:40:46.697Z,5.85
2019-02-05T13:43:16.441Z,5.67
2019-02-05T13:45:46.246Z,5.45
2019-02-05T13:48:15.703Z,5.25
2019-02-05T13:50:45.027Z,5.58
2019-02-05T13:53:14.487Z,4.47
2019-02-05T13:55:44.072Z,3.83
2019-02-05T13:58:13.477Z,3.65
2019-02-05T14:00:46.561Z,3.00
2019-02-05T14:03:16.372Z,3.02
2019-02-05T14:05:46.083Z,2.80
2019-02-05T14:08:15.701Z,2.42
2019-02-05T14:10:46.754Z,2.60
2019-02-05T14:13:16.543Z,2.35
2019-02-05T14:15:49.563Z,2.70
2019-02-05T14:18:22.176Z,3.58
2019-02-05T14:20:51.806Z,2.20
2019-02-05T14:23:21.802Z,2.58
2019-02-05T14:25:52.153Z,2.02
2019-02-05T14:28:21.530Z,1.95
2019-02-05T14:30:53.006Z,2.17
2019-02-05T14:33:22.374Z,2.20
2019-02-05T14:35:51.849Z,1.98
2019-02-05T14:38:22.274Z,1.75
2019-02-05T14:40:51.679Z,1.60
2019-02-05T14:43:21.067Z,1.70
2019-02-05T14:45:50.947Z,1.57
2019-02-05T14:48:20.341Z,1.45
2019-02-05T14:50:49.655Z,1.50
2019-02-05T14:53:19.411Z,1.30
2019-02-05T14:55:48.741Z,1.80
2019-02-05T14:58:19.255Z,1.42
2019-02-05T15:00:48.668Z,1.85
2019-02-05T15:03:18.139Z,2.30
2019-02-05T15:05:48.010Z,2.40
2019-02-05T15:08:18.054Z,2.55
2019-02-05T15:10:47.434Z,3.00
2019-02-05T15:13:17.653Z,3.22
2019-02-05T15:15:47.166Z,4.53
2019-02-05T15:18:16.870Z,2.62
2019-02-05T15:20:47.811Z,2.75
2019-02-05T15:23:17.394Z,2.87
2019-02-05T15:25:46.779Z,3.42
2019-02-05T15:28:16.109Z,3.10
2019-02-05T15:30:46.056Z,3.52
2019-02-05T15:33:18.245Z,5.33
2019-02-05T15:35:52.407Z,6.12
2019-02-05T15:38:21.829Z,5.75
2019-02-05T15:40:51.573Z,5.40
2019-02-05T15:43:21.454Z,5.37
2019-02-05T15:45:50.922Z,5.35
2019-02-05T15:48:20.319Z,4.28
2019-02-05T15:50:49.657Z,3.05
2019-02-05T15:53:19.045Z,3.80
2019-02-05T15:55:48.774Z,3.25
2019-02-05T15:58:18.189Z,2.80
2019-02-05T16:00:48.715Z,2.90
2019-02-05T16:03:18.409Z,2.92
2019-02-05T16:05:47.942Z,2.90
2019-02-05T16:08:17.410Z,3.65
2019-02-05T16:10:46.795Z,3.58
2019-02-05T16:13:16.645Z,3.77
2019-02-05T16:15:46.038Z,3.87
2019-02-05T16:18:15.751Z,3.55
2019-02-05T16:20:45.580Z,3.22
2019-02-05T16:23:15.695Z,3.72
2019-02-05T16:25:45.492Z,3.90
2019-02-05T16:28:15.312Z,5.42
2019-02-05T16:30:44.650Z,4.67
2019-02-05T16:33:14.312Z,6.00
2019-02-05T16:35:43.848Z,4.47
2019-02-05T16:38:13.313Z,4.37
2019-02-05T16:40:42.719Z,5.85
2019-02-05T16:43:12.360Z,4.97
2019-02-05T16:45:42.852Z,6.10
2019-02-05T16:48:12.279Z,7.05
2019-02-05T16:50:44.318Z,6.65
2019-02-05T16:53:14.182Z,7.25
2019-02-05T16:55:43.648Z,7.53
2019-02-05T16:58:26.684Z,8.63
2019-02-05T17:00:56.065Z,8.63
2019-02-05T17:03:25.883Z,7.70
2019-02-05T17:05:55.905Z,8.08
2019-02-05T17:08:25.320Z,8.85
2019-02-05T17:10:54.628Z,9.48
2019-02-05T17:13:24.535Z,9.10
2019-02-05T17:15:53.914Z,9.15
2019-02-05T17:18:24.150Z,8.20
2019-02-05T17:20:54.239Z,8.88
2019-02-05T17:23:23.573Z,10.15
2019-02-05T17:25:53.036Z,9.23
2019-02-05T17:28:22.536Z,11.05
2019-02-05T17:30:52.011Z,9.65
2019-02-05T17:33:21.494Z,9.95
2019-02-05T17:35:50.973Z,16.50
2019-02-05T17:38:20.349Z,9.48
2019-02-05T17:40:50.077Z,8.98
2019-02-05T17:43:20.660Z,8.48
2019-02-05T17:45:50.121Z,9.03
2019-02-05T17:48:19.467Z,9.15
2019-02-05T17:50:48.841Z,8.80
2019-02-05T17:53:18.219Z,8.63
2019-02-05T17:55:47.541Z,8.10
2019-02-05T17:58:17.093Z,8.23
2019-02-05T18:00:48.129Z,8.30
2019-02-05T18:03:17.552Z,7.53
2019-02-05T18:05:47.535Z,7.30
2019-02-05T18:08:17.152Z,8.03
2019-02-05T18:10:46.935Z,8.18
2019-02-05T18:13:16.330Z,8.15
2019-02-05T18:15:45.884Z,7.60
2019-02-05T18:18:15.697Z,8.18
2019-02-05T18:20:45.064Z,7.83
2019-02-05T18:23:14.751Z,7.50
2019-02-05T18:25:45.507Z,7.25
2019-02-05T18:28:15.513Z,6.90
2019-02-05T18:30:44.976Z,7.25
2019-02-05T18:33:14.482Z,8.13
2019-02-05T18:35:44.348Z,7.47
2019-02-05T18:38:16.257Z,7.53
2019-02-05T18:40:45.630Z,7.72
2019-02-05T18:43:15.604Z,10.03
2019-02-05T18:45:45.002Z,12.15
2019-02-05T18:48:14.321Z,11.03
2019-02-05T18:50:43.777Z,10.20
2019-02-05T18:53:13.267Z,10.85
2019-02-05T18:55:45.101Z,9.98
2019-02-05T18:58:14.530Z,10.35
2019-02-05T19:00:47.494Z,11.48
2019-02-05T19:03:16.944Z,11.05
2019-02-05T19:05:46.929Z,10.95
2019-02-05T19:08:16.925Z,9.95
2019-02-05T19:10:47.368Z,10.50
2019-02-05T19:13:16.754Z,9.90
2019-02-05T19:15:46.976Z,11.25
2019-02-05T19:18:17.333Z,9.20
2019-02-05T19:20:47.843Z,10.23
2019-02-05T19:23:17.194Z,9.00
2019-02-05T19:25:54.618Z,10.58
2019-02-05T19:28:25.979Z,10.28
2019-02-05T19:30:59.706Z,10.10
2019-02-05T19:33:29.071Z,10.60
2019-02-05T19:35:58.401Z,10.50
2019-02-05T19:38:27.820Z,11.33
2019-02-05T19:40:58.383Z,9.85
2019-02-05T19:43:27.795Z,11.20
2019-02-05T19:45:59.265Z,10.98
2019-02-05T19:48:49.016Z,10.78
2019-02-05T19:51:17.854Z,10.18
2019-02-05T19:53:47.342Z,10.75
2019-02-05T19:56:16.778Z,10.20
2019-02-05T19:58:46.882Z,10.98
2019-02-05T20:01:18.457Z,10.72
2019-02-05T20:03:47.692Z,9.75
2019-02-05T20:06:17.321Z,9.33
2019-02-05T20:08:46.748Z,9.80
2019-02-05T20:11:17.100Z,9.88
2019-02-05T20:13:46.536Z,10.85
2019-02-05T20:16:16.038Z,8.70
2019-02-05T20:18:45.990Z,7.58
2019-02-05T20:21:15.901Z,7.42
2019-02-05T20:23:45.437Z,8.65
2019-02-05T20:26:14.921Z,8.28
2019-02-05T20:28:44.827Z,8.75
2019-02-05T20:31:14.555Z,8.08
2019-02-05T20:33:49.837Z,8.10
2019-02-05T20:36:15.970Z,7.42
2019-02-05T20:38:45.506Z,7.28
2019-02-05T20:41:14.997Z,6.85
2019-02-05T20:43:45.748Z,6.97
2019-02-05T20:46:15.775Z,6.97
2019-02-05T20:48:45.784Z,7.22
2019-02-05T20:51:15.830Z,8.18
2019-02-05T20:53:45.619Z,9.63
2019-02-05T20:56:15.002Z,10.10
2019-02-05T20:58:44.933Z,10.50
2019-02-05T21:01:15.266Z,10.08
2019-02-05T21:03:45.153Z,9.93
2019-02-05T21:06:14.671Z,11.45
2019-02-05T21:08:44.617Z,10.85
2019-02-05T21:11:14.140Z,10.48
2019-02-05T21:13:44.047Z,10.60
2019-02-05T21:16:13.787Z,12.63
2019-02-05T21:18:43.246Z,11.05
2019-02-05T21:21:13.138Z,10.65
2019-02-05T21:23:42.728Z,10.98
2019-02-05T21:26:12.330Z,11.18
2019-02-05T21:28:42.281Z,10.88
2019-02-05T21:31:12.308Z,10.18
2019-02-05T21:33:41.792Z,11.25
2019-02-05T21:36:11.265Z,11.08
2019-02-05T21:38:41.228Z,11.68
2019-02-05T21:41:11.148Z,11.70
2019-02-05T21:43:40.606Z,10.68
2019-02-05T21:46:10.670Z,11.68
2019-02-05T21:48:40.553Z,10.90
2019-02-05T21:51:10.116Z,9.40
2019-02-05T21:53:40.088Z,10.95
2019-02-05T21:56:09.579Z,9.93
2019-02-05T21:58:39.031Z,10.25
2019-02-05T22:01:09.026Z,10.43
2019-02-05T22:03:38.576Z,10.38
2019-02-05T22:06:08.076Z,11.22
2019-02-05T22:08:37.798Z,10.43
2019-02-05T22:11:07.569Z,11.03
2019-02-05T22:13:37.168Z,11.43
2019-02-05T22:16:06.834Z,10.48
2019-02-05T22:18:36.223Z,9.48
2019-02-05T22:21:05.935Z,10.93
2019-02-05T22:23:35.436Z,10.50
2019-02-05T22:26:05.381Z,10.05
2019-02-05T22:28:34.738Z,9.85
2019-02-05T22:31:04.244Z,10.40
2019-02-05T22:33:34.037Z,10.95
2019-02-05T22:36:03.774Z,11.25
2019-02-05T22:38:33.490Z,10.55
2019-02-05T22:41:03.038Z,10.70
2019-02-05T22:43:32.502Z,10.63
2019-02-05T22:46:01.878Z,11.18
2019-02-05T22:48:32.152Z,11.03
2019-02-05T22:51:01.558Z,10.50
2019-02-05T22:53:31.676Z,11.12
2019-02-05T22:56:20.559Z,12.10
2019-02-05T22:58:50.468Z,11.75
2019-02-05T23:01:38.410Z,12.33
2019-02-05T23:04:10.367Z,11.70
2019-02-05T23:06:58.565Z,11.50
2019-02-05T23:09:31.308Z,12.58
2019-02-05T23:12:19.407Z,11.50
2019-02-05T23:14:54.868Z,13.00
2019-02-05T23:17:24.409Z,10.98
2019-02-05T23:19:53.878Z,11.93
2019-02-05T23:22:23.682Z,12.58
2019-02-05T23:24:53.164Z,13.25
2019-02-05T23:27:22.950Z,11.85
2019-02-05T23:29:52.409Z,12.05
2019-02-05T23:32:21.881Z,11.75
2019-02-05T23:35:01.854Z,12.73
2019-02-05T23:37:22.386Z,11.40
2019-02-05T23:39:51.772Z,10.63
2019-02-05T23:42:21.787Z,9.55
2019-02-05T23:44:51.684Z,10.38
2019-02-05T23:47:21.095Z,10.53
2019-02-05T23:49:50.791Z,9.70
2019-02-05T23:52:20.430Z,10.53
2019-02-05T23:54:49.880Z,10.25
2019-02-05T23:57:20.040Z,10.30
2019-02-05T23:59:49.445Z,10.55
